S/y Far Bay — 2EDV2 — position and weather

sailwx.info

Track history (hours):
 
Tides and Currents Weather Stations Pressure Air Temp Water Temp Dewpoint Dewpoint Depression Visibility Wind Speed Wind Dir Waves Ship Positions

S/y Far Bay

Last reported at 2017-Sep-24 04:52 UTC. Time now 2017-Oct-18 06:07 UTC.
Position N 41°11' W 072°20'.
Warning: this ship's position is 24 days out of date.

Length 22 m.

Type: Sailing vessel. MMSI: 235084258.

Date/timePositionNaut miles runAvg speedWind from/ knotsBaromVisibWave heightAir tempDewpointWater temp
2017-Sep-24 04:52N 41°11' W 072°20'2 6.3
2017-Sep-24 04:31N 41°10' W 072°23'3 6.1
2017-Sep-24 04:01N 41°09' W 072°27'3 5.9
2017-Sep-24 03:30N 41°09' W 072°31'74 1.5
2017-Sep-22 01:58N 40°43' W 074°03'0 0.0
2017-Sep-22 01:28N 40°43' W 074°03'0 0.0
2017-Sep-22 00:58N 40°43' W 074°03'0 0.0
2017-Sep-22 00:28N 40°43' W 074°03'0 0.0
2017-Sep-21 23:58N 40°43' W 074°03'0 0.0
2017-Sep-21 23:28N 40°43' W 074°03'0 0.0
2017-Sep-21 23:00N 40°43' W 074°03'2 3.3
2017-Sep-21 22:30N 40°42' W 074°01'2 3.2
2017-Sep-21 22:00N 40°41' W 074°02'2 3.4
2017-Sep-21 21:30N 40°39' W 074°02'2 4.0
2017-Sep-21 21:00N 40°38' W 074°04'2 5.0
2017-Sep-21 20:30N 40°36' W 074°02'1 2.3
2017-Sep-21 19:56N 40°34' W 074°02'1 1.7
2017-Sep-21 19:20N 40°33' W 074°01'0 0.4
2017-Sep-21 18:16N 40°33' W 074°02'1 4.6
2017-Sep-21 18:00N 40°34' W 074°02'3 5.8
2017-Sep-21 17:28N 40°37' W 074°03'2 5.0
2017-Sep-21 17:00N 40°40' W 074°03'3 5.5
2017-Sep-21 16:30N 40°42' W 074°02'1 1.2
2017-Sep-21 15:59N 40°43' W 074°03'0 0.0
2017-Sep-21 15:29N 40°43' W 074°03'0 0.0
2017-Sep-21 14:59N 40°43' W 074°03'0 0.0
2017-Sep-21 14:29N 40°43' W 074°03'0 0.0
2017-Sep-21 13:59N 40°43' W 074°03'0 0.0
2017-Sep-21 13:29N 40°43' W 074°03'0 0.0
2017-Sep-21 12:59N 40°43' W 074°03'0 0.0
2017-Sep-21 12:29N 40°43' W 074°03'0 0.0
2017-Sep-21 11:59N 40°43' W 074°03'0 0.0
2017-Sep-21 11:29N 40°43' W 074°03'0 0.0
2017-Sep-21 10:59N 40°43' W 074°03'0 0.0
2017-Sep-21 10:29N 40°43' W 074°03'0 0.0
2017-Sep-21 09:59N 40°43' W 074°03'0 0.0
2017-Sep-21 09:29N 40°43' W 074°03'0 0.0
2017-Sep-21 08:59N 40°43' W 074°03'0 0.0
2017-Sep-21 08:29N 40°43' W 074°03'0 0.0
2017-Sep-21 07:59N 40°43' W 074°03'0 0.0
2017-Sep-21 07:29N 40°43' W 074°03'0 0.0
2017-Sep-21 06:59N 40°43' W 074°03'0 0.0
2017-Sep-21 06:29N 40°43' W 074°03'0 0.0
2017-Sep-21 05:59N 40°43' W 074°03'0 0.0
2017-Sep-21 05:29N 40°43' W 074°03'0 0.0
2017-Sep-21 04:59N 40°43' W 074°03'0 0.0
2017-Sep-21 04:29N 40°43' W 074°03'0 0.0
2017-Sep-21 03:59N 40°43' W 074°03'0 0.0
2017-Sep-21 03:29N 40°43' W 074°03'0 0.0
2017-Sep-21 02:59N 40°43' W 074°03'0 0.0
2017-Sep-21 02:29N 40°43' W 074°03'0 0.0
2017-Sep-21 01:59N 40°43' W 074°03'0 0.0
2017-Sep-21 01:29N 40°43' W 074°03'0 0.0
2017-Sep-21 00:59N 40°43' W 074°03'0 0.0
2017-Sep-21 00:29N 40°43' W 074°03'0 0.0
2017-Sep-20 23:59N 40°43' W 074°03'0 0.0
2017-Sep-20 23:29N 40°43' W 074°03'0 0.0
2017-Sep-20 22:59N 40°43' W 074°03'0 0.0
2017-Sep-20 22:29N 40°43' W 074°03'0 0.0
2017-Sep-20 21:59N 40°43' W 074°03'0 0.0
2017-Sep-20 21:29N 40°43' W 074°03'0 0.0
2017-Sep-20 20:59N 40°43' W 074°03'0 0.0
2017-Sep-20 20:29N 40°43' W 074°03'0 0.0
2017-Sep-20 19:59N 40°43' W 074°03'0 0.0
2017-Sep-20 19:29N 40°43' W 074°03'0 0.0
2017-Sep-20 18:59N 40°43' W 074°03'0 0.0
2017-Sep-20 18:29N 40°43' W 074°03'0 0.0
2017-Sep-20 17:59N 40°43' W 074°03'0 0.0
2017-Sep-20 17:29N 40°43' W 074°03'0 0.0
2017-Sep-20 16:59N 40°43' W 074°03'0 0.0
2017-Sep-20 16:29N 40°43' W 074°03'0 0.0
2017-Sep-20 15:59N 40°43' W 074°03'0 0.0
2017-Sep-20 15:29N 40°43' W 074°03'0 0.0
2017-Sep-20 14:59N 40°43' W 074°03'0 0.0
2017-Sep-20 13:59N 40°43' W 074°03'0 0.0
2017-Sep-20 13:29N 40°43' W 074°03'0 0.0
2017-Sep-20 12:59N 40°43' W 074°03'0 0.0
2017-Sep-20 12:29N 40°43' W 074°03'0 0.0
2017-Sep-20 11:59N 40°43' W 074°03'0 0.0
2017-Sep-20 11:29N 40°43' W 074°03'0 0.0
2017-Sep-20 10:59N 40°43' W 074°03'0 0.0
2017-Sep-20 10:29N 40°43' W 074°03'0 0.0
2017-Sep-20 09:59N 40°43' W 074°03'0 0.0
2017-Sep-20 09:29N 40°43' W 074°03'0 0.0
2017-Sep-20 08:59N 40°43' W 074°03'0 0.0
2017-Sep-20 08:29N 40°43' W 074°03'0 0.0
2017-Sep-20 07:59N 40°43' W 074°03'0 0.0
2017-Sep-20 07:29N 40°43' W 074°03'0 0.0
2017-Sep-20 06:59N 40°43' W 074°03'0 0.0
2017-Sep-20 06:29N 40°43' W 074°03'0 0.0
2017-Sep-20 05:59N 40°43' W 074°03'0 0.0
2017-Sep-20 05:29N 40°43' W 074°03'0 0.0
2017-Sep-20 04:59N 40°43' W 074°03'0 0.0
2017-Sep-20 04:29N 40°43' W 074°03'0 0.0
2017-Sep-20 03:59N 40°43' W 074°03'0 0.0
2017-Sep-20 03:29N 40°43' W 074°03'0 0.0
2017-Sep-20 02:59N 40°43' W 074°03'0 0.0
2017-Sep-20 02:29N 40°43' W 074°03'0 0.0
2017-Sep-20 01:59N 40°43' W 074°03'0 0.0
2017-Sep-20 01:29N 40°43' W 074°03'0 0.1
2017-Sep-20 00:59N 40°43' W 074°03'0 0.1
2017-Sep-20 00:29N 40°43' W 074°03'0 0.0
2017-Sep-19 23:59N 40°43' W 074°03'0 0.0
2017-Sep-19 23:29N 40°43' W 074°03'0 0.0
2017-Sep-19 22:59N 40°43' W 074°03'0 0.0
2017-Sep-19 22:29N 40°43' W 074°03'0 0.0
2017-Sep-19 21:59N 40°43' W 074°03'0 0.0
2017-Sep-19 21:29N 40°43' W 074°03'0 0.0
2017-Sep-19 20:59N 40°43' W 074°03'0 0.0
2017-Sep-19 20:29N 40°43' W 074°03'0 0.0
2017-Sep-19 19:59N 40°43' W 074°03'0 0.0
2017-Sep-19 19:29N 40°43' W 074°03'0 0.0
2017-Sep-19 18:59N 40°43' W 074°03'0 0.0
2017-Sep-19 18:29N 40°43' W 074°03'0 0.0
2017-Sep-19 17:59N 40°43' W 074°03'0 0.0
2017-Sep-19 17:29N 40°43' W 074°03'0 0.0
2017-Sep-19 16:59N 40°43' W 074°03'0 0.0
2017-Sep-19 16:29N 40°43' W 074°03'0 0.0
2017-Sep-19 15:59N 40°43' W 074°03'0 0.0
2017-Sep-19 15:29N 40°43' W 074°03'0 0.0
2017-Sep-19 14:59N 40°43' W 074°03'0 0.0
2017-Sep-19 14:29N 40°43' W 074°03'0 0.0
2017-Sep-19 13:59N 40°43' W 074°03'0 0.0
2017-Sep-19 13:29N 40°43' W 074°03'0 0.0
2017-Sep-19 12:59N 40°43' W 074°03'0 0.0
2017-Sep-19 12:29N 40°43' W 074°03'0 0.0
2017-Sep-19 11:59N 40°43' W 074°03'0 0.0
2017-Sep-19 11:29N 40°43' W 074°03'0 0.0
2017-Sep-19 10:59N 40°43' W 074°03'0 0.0
2017-Sep-19 10:29N 40°43' W 074°03'0 0.0
2017-Sep-19 09:59N 40°43' W 074°03'0 0.0
2017-Sep-19 09:29N 40°43' W 074°03'0 0.0
2017-Sep-19 08:59N 40°43' W 074°03'0 0.0
2017-Sep-19 08:29N 40°43' W 074°03'0 0.0
2017-Sep-19 07:59N 40°43' W 074°03'0 0.0
2017-Sep-19 07:29N 40°43' W 074°03'0 0.0
2017-Sep-19 06:59N 40°43' W 074°03'0 0.0
2017-Sep-19 06:29N 40°43' W 074°03'0 0.0
2017-Sep-19 05:59N 40°43' W 074°03'0 0.0
2017-Sep-19 05:29N 40°43' W 074°03'0 0.0
2017-Sep-19 04:59N 40°43' W 074°03'0 0.0
2017-Sep-19 04:29N 40°43' W 074°03'0 0.0
2017-Sep-19 03:59N 40°43' W 074°03'0 0.0
2017-Sep-19 03:29N 40°43' W 074°03'0 0.0
2017-Sep-19 02:59N 40°43' W 074°03'0 0.0
2017-Sep-19 02:29N 40°43' W 074°03'0 0.0
2017-Sep-19 01:59N 40°43' W 074°03'0 0.0
2017-Sep-19 01:29N 40°43' W 074°03'0 0.0
2017-Sep-19 00:59N 40°43' W 074°03'0 0.0
2017-Sep-19 00:29N 40°43' W 074°03'0 0.0
2017-Sep-18 23:59N 40°43' W 074°03'0 0.0
2017-Sep-18 23:29N 40°43' W 074°03'0 0.0
2017-Sep-18 22:59N 40°43' W 074°03'0 0.0
2017-Sep-18 22:29N 40°43' W 074°03'0 0.0
2017-Sep-18 21:59N 40°43' W 074°03'0 0.0
2017-Sep-18 21:29N 40°43' W 074°03'0 0.0
2017-Sep-18 20:59N 40°43' W 074°03'0 0.0
2017-Sep-18 20:29N 40°43' W 074°03'0 0.0
2017-Sep-18 19:59N 40°43' W 074°03'0 0.0
2017-Sep-18 19:29N 40°43' W 074°03'0 0.0
2017-Sep-18 18:59N 40°43' W 074°03'0 0.0
2017-Sep-18 18:29N 40°43' W 074°03'0 0.0
2017-Sep-18 17:59N 40°43' W 074°03'0 0.0
2017-Sep-18 17:29N 40°43' W 074°03'0 0.0
2017-Sep-18 16:59N 40°43' W 074°03'0 0.0
2017-Sep-18 16:29N 40°43' W 074°03'0 0.0
2017-Sep-18 15:58N 40°43' W 074°03'0 0.0
2017-Sep-18 15:29N 40°43' W 074°03'0 0.0
2017-Sep-18 14:58N 40°43' W 074°03'0 0.0
2017-Sep-18 14:29N 40°43' W 074°03'0 0.0
2017-Sep-18 13:58N 40°43' W 074°03'0 0.0
2017-Sep-18 13:28N 40°43' W 074°03'0 0.0
2017-Sep-18 12:58N 40°43' W 074°03'0 0.0
2017-Sep-18 12:28N 40°43' W 074°03'0 0.0
2017-Sep-18 11:58N 40°43' W 074°03'0 0.0
2017-Sep-18 11:28N 40°43' W 074°03'0 0.0
2017-Sep-18 10:58N 40°43' W 074°03'0 0.0
2017-Sep-18 10:28N 40°43' W 074°03'0 0.0
2017-Sep-18 09:58N 40°43' W 074°03'0 0.0
2017-Sep-18 09:28N 40°43' W 074°03'0 0.0
2017-Sep-18 08:58N 40°43' W 074°03'0 0.0
2017-Sep-18 08:28N 40°43' W 074°03'0 0.0
2017-Sep-18 07:55N 40°43' W 074°03'0 0.0
2017-Sep-18 07:28N 40°43' W 074°03'0 0.0
2017-Sep-18 06:58N 40°43' W 074°03'0 0.0
2017-Sep-18 06:28N 40°43' W 074°03'0 0.0
2017-Sep-18 05:58N 40°43' W 074°03'0 0.0
2017-Sep-18 05:28N 40°43' W 074°03'0 0.0
2017-Sep-18 04:58N 40°43' W 074°03'0 0.0
2017-Sep-18 04:28N 40°43' W 074°03'0 0.0
2017-Sep-18 03:58N 40°43' W 074°03'0 0.0
2017-Sep-18 03:28N 40°43' W 074°03'0 0.0
2017-Sep-18 02:58N 40°43' W 074°03'0 0.0
2017-Sep-18 02:28N 40°43' W 074°03'0 0.0
2017-Sep-18 01:58N 40°43' W 074°03'0 0.0
2017-Sep-18 01:28N 40°43' W 074°03'0 0.0
2017-Sep-18 00:58N 40°43' W 074°03'0 0.0
2017-Sep-18 00:28N 40°43' W 074°03'0 0.0
2017-Sep-17 23:58N 40°43' W 074°03'0 0.0
2017-Sep-17 23:28N 40°43' W 074°03'0 0.0
2017-Sep-17 22:58N 40°43' W 074°03'0 0.0
2017-Sep-17 22:28N 40°43' W 074°03'0 0.0
2017-Sep-17 21:58N 40°43' W 074°03'0 0.0
2017-Sep-17 21:28N 40°43' W 074°03'0 0.0
2017-Sep-17 20:58N 40°43' W 074°03'0 0.0
2017-Sep-17 20:28N 40°43' W 074°03'0 0.0
2017-Sep-17 19:58N 40°43' W 074°03'0 0.0
2017-Sep-17 19:28N 40°43' W 074°03'0 0.0
2017-Sep-17 18:58N 40°43' W 074°03'0 0.0
2017-Sep-17 18:28N 40°43' W 074°03'0 0.0
2017-Sep-17 17:58N 40°43' W 074°03'0 0.0
2017-Sep-17 17:28N 40°43' W 074°03'0 0.0
2017-Sep-17 16:58N 40°43' W 074°03'0 0.0
2017-Sep-17 16:28N 40°43' W 074°03'0 0.0
2017-Sep-17 15:58N 40°43' W 074°03'0 0.0
2017-Sep-17 15:28N 40°43' W 074°03'0 0.0
2017-Sep-17 14:58N 40°43' W 074°03'0 0.0
2017-Sep-17 14:28N 40°43' W 074°03'0 0.0
2017-Sep-17 13:58N 40°43' W 074°03'0 0.0
2017-Sep-17 13:28N 40°43' W 074°03'0 0.0
2017-Sep-17 12:58N 40°43' W 074°03'0 0.0
2017-Sep-17 12:28N 40°43' W 074°03'0 0.0
2017-Sep-17 11:58N 40°43' W 074°03'0 0.0
2017-Sep-17 11:28N 40°43' W 074°03'0 0.0
2017-Sep-17 10:58N 40°43' W 074°03'0 0.0
2017-Sep-17 10:30N 40°43' W 074°03'0 0.0
2017-Sep-17 10:00N 40°43' W 074°03'0 0.0
2017-Sep-17 09:30N 40°43' W 074°03'0 0.0
2017-Sep-17 09:00N 40°43' W 074°03'0 0.0
2017-Sep-17 08:30N 40°43' W 074°03'0 0.0
2017-Sep-17 08:00N 40°43' W 074°03'0 0.0
2017-Sep-17 07:30N 40°43' W 074°03'0 0.0
2017-Sep-17 07:00N 40°43' W 074°03'0 0.0
2017-Sep-17 06:30N 40°43' W 074°03'0 0.0
2017-Sep-17 06:00N 40°43' W 074°03'0 0.0
2017-Sep-17 05:30N 40°43' W 074°03'0 0.0
2017-Sep-17 05:00N 40°43' W 074°03'0 0.0
2017-Sep-17 04:30N 40°43' W 074°03'0 0.0
2017-Sep-17 04:00N 40°43' W 074°03'0 0.0
2017-Sep-17 03:30N 40°43' W 074°03'0 0.0
2017-Sep-17 03:00N 40°43' W 074°03'0 0.0
2017-Sep-17 02:30N 40°43' W 074°03'0 0.0
2017-Sep-17 02:00N 40°43' W 074°03'0 0.0
2017-Sep-17 01:30N 40°43' W 074°03'0 0.0
2017-Sep-17 01:00N 40°43' W 074°03'0 0.0
2017-Sep-17 00:30N 40°43' W 074°03'0 0.0
2017-Sep-17 00:00N 40°43' W 074°03'0 0.0
2017-Sep-16 23:30N 40°43' W 074°03'0 0.0
2017-Sep-16 23:00N 40°43' W 074°03'0 0.0
2017-Sep-16 22:30N 40°43' W 074°03'0 0.0
2017-Sep-16 22:00N 40°43' W 074°03'0 0.0
2017-Sep-16 21:30N 40°43' W 074°03'0 0.0
2017-Sep-16 21:00N 40°43' W 074°03'0 0.0
2017-Sep-16 20:30N 40°43' W 074°03'0 0.0
2017-Sep-16 19:59N 40°43' W 074°03'0 0.0
2017-Sep-16 19:29N 40°43' W 074°03'0 0.0
2017-Sep-16 18:59N 40°43' W 074°03'0 0.0
2017-Sep-16 18:29N 40°43' W 074°03'0 0.0
2017-Sep-16 17:59N 40°43' W 074°03'0 0.0
2017-Sep-16 17:29N 40°43' W 074°03'0 0.0
2017-Sep-16 16:59N 40°43' W 074°03'0 0.0
2017-Sep-16 16:29N 40°43' W 074°03'0 0.0
2017-Sep-16 15:59N 40°43' W 074°03'0 0.0
2017-Sep-16 15:29N 40°43' W 074°03'0 0.0
2017-Sep-16 14:59N 40°43' W 074°03'0 0.0
2017-Sep-16 14:29N 40°43' W 074°03'0 0.0
2017-Sep-16 13:59N 40°43' W 074°03'0 0.0
2017-Sep-16 13:29N 40°43' W 074°03'0 0.0
2017-Sep-16 12:59N 40°43' W 074°03'0 0.0
2017-Sep-16 12:29N 40°43' W 074°03'0 0.0
2017-Sep-16 11:59N 40°43' W 074°03'0 0.0
2017-Sep-16 11:29N 40°43' W 074°03'0 0.0
2017-Sep-16 10:59N 40°43' W 074°03'0 0.0
2017-Sep-16 10:29N 40°43' W 074°03'0 0.0
2017-Sep-16 09:59N 40°43' W 074°03'0 0.0
2017-Sep-16 09:29N 40°43' W 074°03'0 0.0
2017-Sep-16 08:59N 40°43' W 074°03'0 0.0
2017-Sep-16 08:29N 40°43' W 074°03'0 0.0
2017-Sep-16 07:59N 40°43' W 074°03'0 0.0
2017-Sep-16 07:29N 40°43' W 074°03'0 0.0
2017-Sep-16 06:59N 40°43' W 074°03'0 0.0
2017-Sep-16 06:29N 40°43' W 074°03'0 0.0
2017-Sep-16 05:59N 40°43' W 074°03'0 0.0
2017-Sep-16 05:29N 40°43' W 074°03'0 0.0
2017-Sep-16 04:59N 40°43' W 074°03'0 0.0
2017-Sep-16 04:29N 40°43' W 074°03'0 0.0
2017-Sep-16 03:59N 40°43' W 074°03'0 0.0
2017-Sep-16 03:29N 40°43' W 074°03'0 0.0
2017-Sep-16 02:58N 40°43' W 074°03'0 0.0
2017-Sep-16 02:28N 40°43' W 074°03'0 0.0
2017-Sep-16 01:58N 40°43' W 074°03'0 0.0
2017-Sep-16 01:28N 40°43' W 074°03'0 0.0
2017-Sep-16 00:58N 40°43' W 074°03'0 0.0
2017-Sep-16 00:28N 40°43' W 074°03'0 0.0
2017-Sep-15 23:58N 40°43' W 074°03'0 0.0
2017-Sep-15 23:28N 40°43' W 074°03'0 0.0
2017-Sep-15 22:58N 40°43' W 074°03'0 0.0
2017-Sep-15 22:28N 40°43' W 074°03'0 0.0
2017-Sep-15 21:58N 40°43' W 074°03'0 0.0
2017-Sep-15 21:28N 40°43' W 074°03'1 1.2
2017-Sep-15 21:00N 40°42' W 074°02'4 8.7
2017-Sep-15 20:30N 40°38' W 074°03'4 6.4
2017-Sep-15 19:54N 40°34' W 074°02'1 3.0
2017-Sep-15 19:29N 40°35' W 074°03'1 2.7
2017-Sep-15 19:00N 40°37' W 074°03'1 2.5
2017-Sep-15 18:30N 40°38' W 074°04'2 3.9
2017-Sep-15 18:00N 40°40' W 074°03'3 5.2
2017-Sep-15 17:31N 40°42' W 074°02'1 1.1
2017-Sep-15 17:00N 40°43' W 074°03'0 0.0
2017-Sep-15 16:29N 40°43' W 074°03'0 0.0
2017-Sep-15 15:59N 40°43' W 074°03'0 0.0
2017-Sep-15 15:29N 40°43' W 074°03'0 0.0
2017-Sep-15 14:59N 40°43' W 074°03'0 0.0
2017-Sep-15 14:29N 40°43' W 074°03'0 0.0
2017-Sep-15 13:59N 40°43' W 074°03'0 0.0
2017-Sep-15 13:29N 40°43' W 074°03'0 0.0
2017-Sep-15 12:59N 40°43' W 074°03'0 0.0
2017-Sep-15 12:29N 40°43' W 074°03'0 0.0
2017-Sep-15 11:59N 40°43' W 074°03'0 0.0
2017-Sep-15 11:29N 40°43' W 074°03'0 0.0
2017-Sep-15 10:59N 40°43' W 074°03'0 0.0
2017-Sep-15 10:29N 40°43' W 074°03'0 0.0
2017-Sep-15 09:59N 40°43' W 074°03'0 0.0
2017-Sep-15 09:29N 40°43' W 074°03'0 0.0
2017-Sep-15 08:59N 40°43' W 074°03'0 0.0
2017-Sep-15 08:29N 40°43' W 074°03'0 0.0
2017-Sep-15 07:59N 40°43' W 074°03'0 0.0
2017-Sep-15 07:29N 40°43' W 074°03'0 0.0
2017-Sep-15 06:59N 40°43' W 074°03'0 0.0
2017-Sep-15 06:29N 40°43' W 074°03'0 0.0
2017-Sep-15 05:59N 40°43' W 074°03'0 0.0
2017-Sep-15 05:29N 40°43' W 074°03'0 0.0
2017-Sep-15 04:59N 40°43' W 074°03'0 0.0
2017-Sep-15 04:29N 40°43' W 074°03'0 0.0
2017-Sep-15 03:59N 40°43' W 074°03'0 0.0
2017-Sep-15 03:29N 40°43' W 074°03'0 0.0
2017-Sep-15 02:59N 40°43' W 074°03'0 0.0
2017-Sep-15 02:29N 40°43' W 074°03'0 0.0
2017-Sep-15 01:58N 40°43' W 074°03'0 0.0
2017-Sep-15 01:28N 40°43' W 074°03'0 0.0
2017-Sep-15 00:58N 40°43' W 074°03'0 0.0
2017-Sep-15 00:28N 40°43' W 074°03'0 0.0
2017-Sep-14 23:58N 40°43' W 074°03'0 0.0
2017-Sep-14 23:28N 40°43' W 074°03'0 0.0
2017-Sep-14 22:58N 40°43' W 074°03'0 0.0
2017-Sep-14 22:28N 40°43' W 074°03'0 0.0
2017-Sep-14 21:58N 40°43' W 074°03'0 0.0
2017-Sep-14 21:28N 40°43' W 074°03'0 0.1
2017-Sep-14 21:00N 40°43' W 074°03'2 3.1
2017-Sep-14 20:30N 40°41' W 074°02'3 5.8
2017-Sep-14 20:00N 40°38' W 074°03'6 6.0
2017-Sep-14 19:05N 40°33' W 074°03'0 0.0
2017-Sep-14 18:37N 40°33' W 074°03'1 5.0
2017-Sep-14 18:27N 40°34' W 074°02'2 2.5
2017-Sep-14 17:50N 40°35' W 074°02'1 3.0
2017-Sep-14 17:21N 40°36' W 074°03'1 3.4
2017-Sep-14 17:00N 40°38' W 074°04'2 4.7
2017-Sep-14 16:31N 40°40' W 074°03'3 5.7
2017-Sep-14 16:00N 40°43' W 074°02'0 0.7
2017-Sep-14 15:29N 40°43' W 074°03'0 0.0
2017-Sep-14 14:59N 40°43' W 074°03'0 0.0
2017-Sep-14 14:29N 40°43' W 074°03'0 0.0
2017-Sep-14 13:59N 40°43' W 074°03'0 0.0
2017-Sep-14 13:29N 40°43' W 074°03'0 0.0
2017-Sep-14 12:59N 40°43' W 074°03'0 0.0
2017-Sep-14 12:29N 40°43' W 074°03'0 0.0
2017-Sep-14 11:59N 40°43' W 074°03'0 0.0
2017-Sep-14 11:29N 40°43' W 074°03'0 0.0
2017-Sep-14 10:59N 40°43' W 074°03'0 0.0
2017-Sep-14 10:29N 40°43' W 074°03'0 0.0
2017-Sep-14 09:59N 40°43' W 074°03'0 0.0
2017-Sep-14 09:29N 40°43' W 074°03'0 0.0
2017-Sep-14 08:59N 40°43' W 074°03'0 0.0
2017-Sep-14 08:29N 40°43' W 074°03'0 0.0
2017-Sep-14 07:59N 40°43' W 074°03'0 0.0
2017-Sep-14 07:29N 40°43' W 074°03'0 0.0
2017-Sep-14 06:59N 40°43' W 074°03'0 0.0
2017-Sep-14 06:29N 40°43' W 074°03'0 0.0
2017-Sep-14 05:59N 40°43' W 074°03'0 0.0
2017-Sep-14 05:29N 40°43' W 074°03'0 0.0
2017-Sep-14 04:59N 40°43' W 074°03'  
Track history (hours):
 
Tides and Currents Weather Stations Pressure Air Temp Water Temp Dewpoint Dewpoint Depression Visibility Wind Speed Wind Dir Waves Ship Positions

S/y Far Bay

Last reported at 2017-Sep-24 04:52 UTC. Time now 2017-Oct-18 06:07 UTC.
Position N 41°11' W 072°20'.
Warning: this ship's position is 24 days out of date.

Length 22 m.

Type: Sailing vessel. MMSI: 235084258.

Date/timePositionNaut miles runAvg speedWind from/ knotsBaromVisibWave heightAir tempDewpointWater temp
2017-Sep-24 04:52N 41°11' W 072°20'2 6.3
2017-Sep-24 04:31N 41°10' W 072°23'3 6.1
2017-Sep-24 04:01N 41°09' W 072°27'3 5.9
2017-Sep-24 03:30N 41°09' W 072°31'74 1.5
2017-Sep-22 01:58N 40°43' W 074°03'0 0.0
2017-Sep-22 01:28N 40°43' W 074°03'0 0.0
2017-Sep-22 00:58N 40°43' W 074°03'0 0.0
2017-Sep-22 00:28N 40°43' W 074°03'0 0.0
2017-Sep-21 23:58N 40°43' W 074°03'0 0.0
2017-Sep-21 23:28N 40°43' W 074°03'0 0.0
2017-Sep-21 23:00N 40°43' W 074°03'2 3.3
2017-Sep-21 22:30N 40°42' W 074°01'2 3.2
2017-Sep-21 22:00N 40°41' W 074°02'2 3.4
2017-Sep-21 21:30N 40°39' W 074°02'2 4.0
2017-Sep-21 21:00N 40°38' W 074°04'2 5.0
2017-Sep-21 20:30N 40°36' W 074°02'1 2.3
2017-Sep-21 19:56N 40°34' W 074°02'1 1.7
2017-Sep-21 19:20N 40°33' W 074°01'0 0.4
2017-Sep-21 18:16N 40°33' W 074°02'1 4.6
2017-Sep-21 18:00N 40°34' W 074°02'3 5.8
2017-Sep-21 17:28N 40°37' W 074°03'2 5.0
2017-Sep-21 17:00N 40°40' W 074°03'3 5.5
2017-Sep-21 16:30N 40°42' W 074°02'1 1.2
2017-Sep-21 15:59N 40°43' W 074°03'0 0.0
2017-Sep-21 15:29N 40°43' W 074°03'0 0.0
2017-Sep-21 14:59N 40°43' W 074°03'0 0.0
2017-Sep-21 14:29N 40°43' W 074°03'0 0.0
2017-Sep-21 13:59N 40°43' W 074°03'0 0.0
2017-Sep-21 13:29N 40°43' W 074°03'0 0.0
2017-Sep-21 12:59N 40°43' W 074°03'0 0.0
2017-Sep-21 12:29N 40°43' W 074°03'0 0.0
2017-Sep-21 11:59N 40°43' W 074°03'0 0.0
2017-Sep-21 11:29N 40°43' W 074°03'0 0.0
2017-Sep-21 10:59N 40°43' W 074°03'0 0.0
2017-Sep-21 10:29N 40°43' W 074°03'0 0.0
2017-Sep-21 09:59N 40°43' W 074°03'0 0.0
2017-Sep-21 09:29N 40°43' W 074°03'0 0.0
2017-Sep-21 08:59N 40°43' W 074°03'0 0.0
2017-Sep-21 08:29N 40°43' W 074°03'0 0.0
2017-Sep-21 07:59N 40°43' W 074°03'0 0.0
2017-Sep-21 07:29N 40°43' W 074°03'0 0.0
2017-Sep-21 06:59N 40°43' W 074°03'0 0.0
2017-Sep-21 06:29N 40°43' W 074°03'0 0.0
2017-Sep-21 05:59N 40°43' W 074°03'0 0.0
2017-Sep-21 05:29N 40°43' W 074°03'0 0.0
2017-Sep-21 04:59N 40°43' W 074°03'0 0.0
2017-Sep-21 04:29N 40°43' W 074°03'0 0.0
2017-Sep-21 03:59N 40°43' W 074°03'0 0.0
2017-Sep-21 03:29N 40°43' W 074°03'0 0.0
2017-Sep-21 02:59N 40°43' W 074°03'0 0.0
2017-Sep-21 02:29N 40°43' W 074°03'0 0.0
2017-Sep-21 01:59N 40°43' W 074°03'0 0.0
2017-Sep-21 01:29N 40°43' W 074°03'0 0.0
2017-Sep-21 00:59N 40°43' W 074°03'0 0.0
2017-Sep-21 00:29N 40°43' W 074°03'0 0.0
2017-Sep-20 23:59N 40°43' W 074°03'0 0.0
2017-Sep-20 23:29N 40°43' W 074°03'0 0.0
2017-Sep-20 22:59N 40°43' W 074°03'0 0.0
2017-Sep-20 22:29N 40°43' W 074°03'0 0.0
2017-Sep-20 21:59N 40°43' W 074°03'0 0.0
2017-Sep-20 21:29N 40°43' W 074°03'0 0.0
2017-Sep-20 20:59N 40°43' W 074°03'0 0.0
2017-Sep-20 20:29N 40°43' W 074°03'0 0.0
2017-Sep-20 19:59N 40°43' W 074°03'0 0.0
2017-Sep-20 19:29N 40°43' W 074°03'0 0.0
2017-Sep-20 18:59N 40°43' W 074°03'0 0.0
2017-Sep-20 18:29N 40°43' W 074°03'0 0.0
2017-Sep-20 17:59N 40°43' W 074°03'0 0.0
2017-Sep-20 17:29N 40°43' W 074°03'0 0.0
2017-Sep-20 16:59N 40°43' W 074°03'0 0.0
2017-Sep-20 16:29N 40°43' W 074°03'0 0.0
2017-Sep-20 15:59N 40°43' W 074°03'0 0.0
2017-Sep-20 15:29N 40°43' W 074°03'0 0.0
2017-Sep-20 14:59N 40°43' W 074°03'0 0.0
2017-Sep-20 13:59N 40°43' W 074°03'0 0.0
2017-Sep-20 13:29N 40°43' W 074°03'0 0.0
2017-Sep-20 12:59N 40°43' W 074°03'0 0.0
2017-Sep-20 12:29N 40°43' W 074°03'0 0.0
2017-Sep-20 11:59N 40°43' W 074°03'0 0.0
2017-Sep-20 11:29N 40°43' W 074°03'0 0.0
2017-Sep-20 10:59N 40°43' W 074°03'0 0.0
2017-Sep-20 10:29N 40°43' W 074°03'0 0.0
2017-Sep-20 09:59N 40°43' W 074°03'0 0.0
2017-Sep-20 09:29N 40°43' W 074°03'0 0.0
2017-Sep-20 08:59N 40°43' W 074°03'0 0.0
2017-Sep-20 08:29N 40°43' W 074°03'0 0.0
2017-Sep-20 07:59N 40°43' W 074°03'0 0.0
2017-Sep-20 07:29N 40°43' W 074°03'0 0.0
2017-Sep-20 06:59N 40°43' W 074°03'0 0.0
2017-Sep-20 06:29N 40°43' W 074°03'0 0.0
2017-Sep-20 05:59N 40°43' W 074°03'0 0.0
2017-Sep-20 05:29N 40°43' W 074°03'0 0.0
2017-Sep-20 04:59N 40°43' W 074°03'0 0.0
2017-Sep-20 04:29N 40°43' W 074°03'0 0.0
2017-Sep-20 03:59N 40°43' W 074°03'0 0.0
2017-Sep-20 03:29N 40°43' W 074°03'0 0.0
2017-Sep-20 02:59N 40°43' W 074°03'0 0.0
2017-Sep-20 02:29N 40°43' W 074°03'0 0.0
2017-Sep-20 01:59N 40°43' W 074°03'0 0.0
2017-Sep-20 01:29N 40°43' W 074°03'0 0.1
2017-Sep-20 00:59N 40°43' W 074°03'0 0.1
2017-Sep-20 00:29N 40°43' W 074°03'0 0.0
2017-Sep-19 23:59N 40°43' W 074°03'0 0.0
2017-Sep-19 23:29N 40°43' W 074°03'0 0.0
2017-Sep-19 22:59N 40°43' W 074°03'0 0.0
2017-Sep-19 22:29N 40°43' W 074°03'0 0.0
2017-Sep-19 21:59N 40°43' W 074°03'0 0.0
2017-Sep-19 21:29N 40°43' W 074°03'0 0.0
2017-Sep-19 20:59N 40°43' W 074°03'0 0.0
2017-Sep-19 20:29N 40°43' W 074°03'0 0.0
2017-Sep-19 19:59N 40°43' W 074°03'0 0.0
2017-Sep-19 19:29N 40°43' W 074°03'0 0.0
2017-Sep-19 18:59N 40°43' W 074°03'0 0.0
2017-Sep-19 18:29N 40°43' W 074°03'0 0.0
2017-Sep-19 17:59N 40°43' W 074°03'0 0.0
2017-Sep-19 17:29N 40°43' W 074°03'0 0.0
2017-Sep-19 16:59N 40°43' W 074°03'0 0.0
2017-Sep-19 16:29N 40°43' W 074°03'0 0.0
2017-Sep-19 15:59N 40°43' W 074°03'0 0.0
2017-Sep-19 15:29N 40°43' W 074°03'0 0.0
2017-Sep-19 14:59N 40°43' W 074°03'0 0.0
2017-Sep-19 14:29N 40°43' W 074°03'0 0.0
2017-Sep-19 13:59N 40°43' W 074°03'0 0.0
2017-Sep-19 13:29N 40°43' W 074°03'0 0.0
2017-Sep-19 12:59N 40°43' W 074°03'0 0.0
2017-Sep-19 12:29N 40°43' W 074°03'0 0.0
2017-Sep-19 11:59N 40°43' W 074°03'0 0.0
2017-Sep-19 11:29N 40°43' W 074°03'0 0.0
2017-Sep-19 10:59N 40°43' W 074°03'0 0.0
2017-Sep-19 10:29N 40°43' W 074°03'0 0.0
2017-Sep-19 09:59N 40°43' W 074°03'0 0.0
2017-Sep-19 09:29N 40°43' W 074°03'0 0.0
2017-Sep-19 08:59N 40°43' W 074°03'0 0.0
2017-Sep-19 08:29N 40°43' W 074°03'0 0.0
2017-Sep-19 07:59N 40°43' W 074°03'0 0.0
2017-Sep-19 07:29N 40°43' W 074°03'0 0.0
2017-Sep-19 06:59N 40°43' W 074°03'0 0.0
2017-Sep-19 06:29N 40°43' W 074°03'0 0.0
2017-Sep-19 05:59N 40°43' W 074°03'0 0.0
2017-Sep-19 05:29N 40°43' W 074°03'0 0.0
2017-Sep-19 04:59N 40°43' W 074°03'0 0.0
2017-Sep-19 04:29N 40°43' W 074°03'0 0.0
2017-Sep-19 03:59N 40°43' W 074°03'0 0.0
2017-Sep-19 03:29N 40°43' W 074°03'0 0.0
2017-Sep-19 02:59N 40°43' W 074°03'0 0.0
2017-Sep-19 02:29N 40°43' W 074°03'0 0.0
2017-Sep-19 01:59N 40°43' W 074°03'0 0.0
2017-Sep-19 01:29N 40°43' W 074°03'0 0.0
2017-Sep-19 00:59N 40°43' W 074°03'0 0.0
2017-Sep-19 00:29N 40°43' W 074°03'0 0.0
2017-Sep-18 23:59N 40°43' W 074°03'0 0.0
2017-Sep-18 23:29N 40°43' W 074°03'0 0.0
2017-Sep-18 22:59N 40°43' W 074°03'0 0.0
2017-Sep-18 22:29N 40°43' W 074°03'0 0.0
2017-Sep-18 21:59N 40°43' W 074°03'0 0.0
2017-Sep-18 21:29N 40°43' W 074°03'0 0.0
2017-Sep-18 20:59N 40°43' W 074°03'0 0.0
2017-Sep-18 20:29N 40°43' W 074°03'0 0.0
2017-Sep-18 19:59N 40°43' W 074°03'0 0.0
2017-Sep-18 19:29N 40°43' W 074°03'0 0.0
2017-Sep-18 18:59N 40°43' W 074°03'0 0.0
2017-Sep-18 18:29N 40°43' W 074°03'0 0.0
2017-Sep-18 17:59N 40°43' W 074°03'0 0.0
2017-Sep-18 17:29N 40°43' W 074°03'0 0.0
2017-Sep-18 16:59N 40°43' W 074°03'0 0.0
2017-Sep-18 16:29N 40°43' W 074°03'0 0.0
2017-Sep-18 15:58N 40°43' W 074°03'0 0.0
2017-Sep-18 15:29N 40°43' W 074°03'0 0.0
2017-Sep-18 14:58N 40°43' W 074°03'0 0.0
2017-Sep-18 14:29N 40°43' W 074°03'0 0.0
2017-Sep-18 13:58N 40°43' W 074°03'0 0.0
2017-Sep-18 13:28N 40°43' W 074°03'0 0.0
2017-Sep-18 12:58N 40°43' W 074°03'0 0.0
2017-Sep-18 12:28N 40°43' W 074°03'0 0.0
2017-Sep-18 11:58N 40°43' W 074°03'0 0.0
2017-Sep-18 11:28N 40°43' W 074°03'0 0.0
2017-Sep-18 10:58N 40°43' W 074°03'0 0.0
2017-Sep-18 10:28N 40°43' W 074°03'0 0.0
2017-Sep-18 09:58N 40°43' W 074°03'0 0.0
2017-Sep-18 09:28N 40°43' W 074°03'0 0.0
2017-Sep-18 08:58N 40°43' W 074°03'0 0.0
2017-Sep-18 08:28N 40°43' W 074°03'0 0.0
2017-Sep-18 07:55N 40°43' W 074°03'0 0.0
2017-Sep-18 07:28N 40°43' W 074°03'0 0.0
2017-Sep-18 06:58N 40°43' W 074°03'0 0.0
2017-Sep-18 06:28N 40°43' W 074°03'0 0.0
2017-Sep-18 05:58N 40°43' W 074°03'0 0.0
2017-Sep-18 05:28N 40°43' W 074°03'0 0.0
2017-Sep-18 04:58N 40°43' W 074°03'0 0.0
2017-Sep-18 04:28N 40°43' W 074°03'0 0.0
2017-Sep-18 03:58N 40°43' W 074°03'0 0.0
2017-Sep-18 03:28N 40°43' W 074°03'0 0.0
2017-Sep-18 02:58N 40°43' W 074°03'0 0.0
2017-Sep-18 02:28N 40°43' W 074°03'0 0.0
2017-Sep-18 01:58N 40°43' W 074°03'0 0.0
2017-Sep-18 01:28N 40°43' W 074°03'0 0.0
2017-Sep-18 00:58N 40°43' W 074°03'0 0.0
2017-Sep-18 00:28N 40°43' W 074°03'0 0.0
2017-Sep-17 23:58N 40°43' W 074°03'0 0.0
2017-Sep-17 23:28N 40°43' W 074°03'0 0.0
2017-Sep-17 22:58N 40°43' W 074°03'0 0.0
2017-Sep-17 22:28N 40°43' W 074°03'0 0.0
2017-Sep-17 21:58N 40°43' W 074°03'0 0.0
2017-Sep-17 21:28N 40°43' W 074°03'0 0.0
2017-Sep-17 20:58N 40°43' W 074°03'0 0.0
2017-Sep-17 20:28N 40°43' W 074°03'0 0.0
2017-Sep-17 19:58N 40°43' W 074°03'0 0.0
2017-Sep-17 19:28N 40°43' W 074°03'0 0.0
2017-Sep-17 18:58N 40°43' W 074°03'0 0.0
2017-Sep-17 18:28N 40°43' W 074°03'0 0.0
2017-Sep-17 17:58N 40°43' W 074°03'0 0.0
2017-Sep-17 17:28N 40°43' W 074°03'0 0.0
2017-Sep-17 16:58N 40°43' W 074°03'0 0.0
2017-Sep-17 16:28N 40°43' W 074°03'0 0.0
2017-Sep-17 15:58N 40°43' W 074°03'0 0.0
2017-Sep-17 15:28N 40°43' W 074°03'0 0.0
2017-Sep-17 14:58N 40°43' W 074°03'0 0.0
2017-Sep-17 14:28N 40°43' W 074°03'0 0.0
2017-Sep-17 13:58N 40°43' W 074°03'0 0.0
2017-Sep-17 13:28N 40°43' W 074°03'0 0.0
2017-Sep-17 12:58N 40°43' W 074°03'0 0.0
2017-Sep-17 12:28N 40°43' W 074°03'0 0.0
2017-Sep-17 11:58N 40°43' W 074°03'0 0.0
2017-Sep-17 11:28N 40°43' W 074°03'0 0.0
2017-Sep-17 10:58N 40°43' W 074°03'0 0.0
2017-Sep-17 10:30N 40°43' W 074°03'0 0.0
2017-Sep-17 10:00N 40°43' W 074°03'0 0.0
2017-Sep-17 09:30N 40°43' W 074°03'0 0.0
2017-Sep-17 09:00N 40°43' W 074°03'0 0.0
2017-Sep-17 08:30N 40°43' W 074°03'0 0.0
2017-Sep-17 08:00N 40°43' W 074°03'0 0.0
2017-Sep-17 07:30N 40°43' W 074°03'0 0.0
2017-Sep-17 07:00N 40°43' W 074°03'0 0.0
2017-Sep-17 06:30N 40°43' W 074°03'0 0.0
2017-Sep-17 06:00N 40°43' W 074°03'0 0.0
2017-Sep-17 05:30N 40°43' W 074°03'0 0.0
2017-Sep-17 05:00N 40°43' W 074°03'0 0.0
2017-Sep-17 04:30N 40°43' W 074°03'0 0.0
2017-Sep-17 04:00N 40°43' W 074°03'0 0.0
2017-Sep-17 03:30N 40°43' W 074°03'0 0.0
2017-Sep-17 03:00N 40°43' W 074°03'0 0.0
2017-Sep-17 02:30N 40°43' W 074°03'0 0.0
2017-Sep-17 02:00N 40°43' W 074°03'0 0.0
2017-Sep-17 01:30N 40°43' W 074°03'0 0.0
2017-Sep-17 01:00N 40°43' W 074°03'0 0.0
2017-Sep-17 00:30N 40°43' W 074°03'0 0.0
2017-Sep-17 00:00N 40°43' W 074°03'0 0.0
2017-Sep-16 23:30N 40°43' W 074°03'0 0.0
2017-Sep-16 23:00N 40°43' W 074°03'0 0.0
2017-Sep-16 22:30N 40°43' W 074°03'0 0.0
2017-Sep-16 22:00N 40°43' W 074°03'0 0.0
2017-Sep-16 21:30N 40°43' W 074°03'0 0.0
2017-Sep-16 21:00N 40°43' W 074°03'0 0.0
2017-Sep-16 20:30N 40°43' W 074°03'0 0.0
2017-Sep-16 19:59N 40°43' W 074°03'0 0.0
2017-Sep-16 19:29N 40°43' W 074°03'0 0.0
2017-Sep-16 18:59N 40°43' W 074°03'0 0.0
2017-Sep-16 18:29N 40°43' W 074°03'0 0.0
2017-Sep-16 17:59N 40°43' W 074°03'0 0.0
2017-Sep-16 17:29N 40°43' W 074°03'0 0.0
2017-Sep-16 16:59N 40°43' W 074°03'0 0.0
2017-Sep-16 16:29N 40°43' W 074°03'0 0.0
2017-Sep-16 15:59N 40°43' W 074°03'0 0.0
2017-Sep-16 15:29N 40°43' W 074°03'0 0.0
2017-Sep-16 14:59N 40°43' W 074°03'0 0.0
2017-Sep-16 14:29N 40°43' W 074°03'0 0.0
2017-Sep-16 13:59N 40°43' W 074°03'0 0.0
2017-Sep-16 13:29N 40°43' W 074°03'0 0.0
2017-Sep-16 12:59N 40°43' W 074°03'0 0.0
2017-Sep-16 12:29N 40°43' W 074°03'0 0.0
2017-Sep-16 11:59N 40°43' W 074°03'0 0.0
2017-Sep-16 11:29N 40°43' W 074°03'0 0.0
2017-Sep-16 10:59N 40°43' W 074°03'0 0.0
2017-Sep-16 10:29N 40°43' W 074°03'0 0.0
2017-Sep-16 09:59N 40°43' W 074°03'0 0.0
2017-Sep-16 09:29N 40°43' W 074°03'0 0.0
2017-Sep-16 08:59N 40°43' W 074°03'0 0.0
2017-Sep-16 08:29N 40°43' W 074°03'0 0.0
2017-Sep-16 07:59N 40°43' W 074°03'0 0.0
2017-Sep-16 07:29N 40°43' W 074°03'0 0.0
2017-Sep-16 06:59N 40°43' W 074°03'0 0.0
2017-Sep-16 06:29N 40°43' W 074°03'0 0.0
2017-Sep-16 05:59N 40°43' W 074°03'0 0.0
2017-Sep-16 05:29N 40°43' W 074°03'0 0.0
2017-Sep-16 04:59N 40°43' W 074°03'0 0.0
2017-Sep-16 04:29N 40°43' W 074°03'0 0.0
2017-Sep-16 03:59N 40°43' W 074°03'0 0.0
2017-Sep-16 03:29N 40°43' W 074°03'0 0.0
2017-Sep-16 02:58N 40°43' W 074°03'0 0.0
2017-Sep-16 02:28N 40°43' W 074°03'0 0.0
2017-Sep-16 01:58N 40°43' W 074°03'0 0.0
2017-Sep-16 01:28N 40°43' W 074°03'0 0.0
2017-Sep-16 00:58N 40°43' W 074°03'0 0.0
2017-Sep-16 00:28N 40°43' W 074°03'0 0.0
2017-Sep-15 23:58N 40°43' W 074°03'0 0.0
2017-Sep-15 23:28N 40°43' W 074°03'0 0.0
2017-Sep-15 22:58N 40°43' W 074°03'0 0.0
2017-Sep-15 22:28N 40°43' W 074°03'0 0.0
2017-Sep-15 21:58N 40°43' W 074°03'0 0.0
2017-Sep-15 21:28N 40°43' W 074°03'1 1.2
2017-Sep-15 21:00N 40°42' W 074°02'4 8.7
2017-Sep-15 20:30N 40°38' W 074°03'4 6.4
2017-Sep-15 19:54N 40°34' W 074°02'1 3.0
2017-Sep-15 19:29N 40°35' W 074°03'1 2.7
2017-Sep-15 19:00N 40°37' W 074°03'1 2.5
2017-Sep-15 18:30N 40°38' W 074°04'2 3.9
2017-Sep-15 18:00N 40°40' W 074°03'3 5.2
2017-Sep-15 17:31N 40°42' W 074°02'1 1.1
2017-Sep-15 17:00N 40°43' W 074°03'0 0.0
2017-Sep-15 16:29N 40°43' W 074°03'0 0.0
2017-Sep-15 15:59N 40°43' W 074°03'0 0.0
2017-Sep-15 15:29N 40°43' W 074°03'0 0.0
2017-Sep-15 14:59N 40°43' W 074°03'0 0.0
2017-Sep-15 14:29N 40°43' W 074°03'0 0.0
2017-Sep-15 13:59N 40°43' W 074°03'0 0.0
2017-Sep-15 13:29N 40°43' W 074°03'0 0.0
2017-Sep-15 12:59N 40°43' W 074°03'0 0.0
2017-Sep-15 12:29N 40°43' W 074°03'0 0.0
2017-Sep-15 11:59N 40°43' W 074°03'0 0.0
2017-Sep-15 11:29N 40°43' W 074°03'0 0.0
2017-Sep-15 10:59N 40°43' W 074°03'0 0.0
2017-Sep-15 10:29N 40°43' W 074°03'0 0.0
2017-Sep-15 09:59N 40°43' W 074°03'0 0.0
2017-Sep-15 09:29N 40°43' W 074°03'0 0.0
2017-Sep-15 08:59N 40°43' W 074°03'0 0.0
2017-Sep-15 08:29N 40°43' W 074°03'0 0.0
2017-Sep-15 07:59N 40°43' W 074°03'0 0.0
2017-Sep-15 07:29N 40°43' W 074°03'0 0.0
2017-Sep-15 06:59N 40°43' W 074°03'0 0.0
2017-Sep-15 06:29N 40°43' W 074°03'0 0.0
2017-Sep-15 05:59N 40°43' W 074°03'0 0.0
2017-Sep-15 05:29N 40°43' W 074°03'0 0.0
2017-Sep-15 04:59N 40°43' W 074°03'0 0.0
2017-Sep-15 04:29N 40°43' W 074°03'0 0.0
2017-Sep-15 03:59N 40°43' W 074°03'0 0.0
2017-Sep-15 03:29N 40°43' W 074°03'0 0.0
2017-Sep-15 02:59N 40°43' W 074°03'0 0.0
2017-Sep-15 02:29N 40°43' W 074°03'0 0.0
2017-Sep-15 01:58N 40°43' W 074°03'0 0.0
2017-Sep-15 01:28N 40°43' W 074°03'0 0.0
2017-Sep-15 00:58N 40°43' W 074°03'0 0.0
2017-Sep-15 00:28N 40°43' W 074°03'0 0.0
2017-Sep-14 23:58N 40°43' W 074°03'0 0.0
2017-Sep-14 23:28N 40°43' W 074°03'0 0.0
2017-Sep-14 22:58N 40°43' W 074°03'0 0.0
2017-Sep-14 22:28N 40°43' W 074°03'0 0.0
2017-Sep-14 21:58N 40°43' W 074°03'0 0.0
2017-Sep-14 21:28N 40°43' W 074°03'0 0.1
2017-Sep-14 21:00N 40°43' W 074°03'2 3.1
2017-Sep-14 20:30N 40°41' W 074°02'3 5.8
2017-Sep-14 20:00N 40°38' W 074°03'6 6.0
2017-Sep-14 19:05N 40°33' W 074°03'0 0.0
2017-Sep-14 18:37N 40°33' W 074°03'1 5.0
2017-Sep-14 18:27N 40°34' W 074°02'2 2.5
2017-Sep-14 17:50N 40°35' W 074°02'1 3.0
2017-Sep-14 17:21N 40°36' W 074°03'1 3.4
2017-Sep-14 17:00N 40°38' W 074°04'2 4.7
2017-Sep-14 16:31N 40°40' W 074°03'3 5.7
2017-Sep-14 16:00N 40°43' W 074°02'0 0.7
2017-Sep-14 15:29N 40°43' W 074°03'0 0.0
2017-Sep-14 14:59N 40°43' W 074°03'0 0.0
2017-Sep-14 14:29N 40°43' W 074°03'0 0.0
2017-Sep-14 13:59N 40°43' W 074°03'0 0.0
2017-Sep-14 13:29N 40°43' W 074°03'0 0.0
2017-Sep-14 12:59N 40°43' W 074°03'0 0.0
2017-Sep-14 12:29N 40°43' W 074°03'0 0.0
2017-Sep-14 11:59N 40°43' W 074°03'0 0.0
2017-Sep-14 11:29N 40°43' W 074°03'0 0.0
2017-Sep-14 10:59N 40°43' W 074°03'0 0.0
2017-Sep-14 10:29N 40°43' W 074°03'0 0.0
2017-Sep-14 09:59N 40°43' W 074°03'0 0.0
2017-Sep-14 09:29N 40°43' W 074°03'0 0.0
2017-Sep-14 08:59N 40°43' W 074°03'0 0.0
2017-Sep-14 08:29N 40°43' W 074°03'0 0.0
2017-Sep-14 07:59N 40°43' W 074°03'0 0.0
2017-Sep-14 07:29N 40°43' W 074°03'0 0.0
2017-Sep-14 06:59N 40°43' W 074°03'0 0.0
2017-Sep-14 06:29N 40°43' W 074°03'0 0.0
2017-Sep-14 05:59N 40°43' W 074°03'0 0.0
2017-Sep-14 05:29N 40°43' W 074°03'0 0.0
2017-Sep-14 04:59N 40°43' W 074°03'  

Dump ship's entire track history